createdAt,value
2023-04-18T00:04:50.056Z,21.10
2023-04-18T00:09:52.552Z,17.80
2023-04-18T00:14:54.462Z,16.30
2023-04-18T00:19:57.958Z,16.90
2023-04-18T00:25:00.549Z,16.50
2023-04-18T00:30:03.027Z,15.00
2023-04-18T00:35:08.175Z,18.60
2023-04-18T00:40:11.004Z,20.90
2023-04-18T00:45:13.335Z,18.00
2023-04-18T00:50:15.754Z,18.00
2023-04-18T00:55:18.582Z,20.90
2023-04-18T01:00:20.798Z,17.70
2023-04-18T01:05:23.163Z,24.80
2023-04-18T01:10:25.965Z,22.10
2023-04-18T01:15:28.263Z,24.70
2023-04-18T01:20:30.981Z,25.10
2023-04-18T01:25:34.219Z,20.40
2023-04-18T01:30:36.443Z,22.50
2023-04-18T01:35:38.327Z,22.20
2023-04-18T01:40:40.371Z,20.90
2023-04-18T01:45:42.591Z,22.60
2023-04-18T01:50:44.687Z,21.30
2023-04-18T01:55:50.286Z,23.60
2023-04-18T02:00:53.370Z,21.00
2023-04-18T02:05:55.655Z,21.20
2023-04-18T02:10:57.524Z,19.60
2023-04-18T02:15:59.435Z,17.10
2023-04-18T02:21:02.054Z,17.70
2023-04-18T02:26:04.052Z,18.90
2023-04-18T02:31:06.963Z,16.70
2023-04-18T02:36:10.492Z,17.00
2023-04-18T02:41:19.131Z,19.20
2023-04-18T02:46:21.075Z,15.60
2023-04-18T02:51:23.765Z,17.00
2023-04-18T02:56:25.806Z,16.80
2023-04-18T03:01:28.852Z,16.90
2023-04-18T03:06:31.503Z,17.50
2023-04-18T03:11:33.602Z,22.20
2023-04-18T03:16:36.045Z,15.50
2023-04-18T03:21:38.131Z,17.60
2023-04-18T03:26:40.051Z,18.00
2023-04-18T03:31:42.100Z,17.80
2023-04-18T03:36:46.549Z,19.30
2023-04-18T03:41:49.752Z,19.40
2023-04-18T03:46:51.712Z,20.00
2023-04-18T03:51:53.971Z,18.30
2023-04-18T03:56:57.305Z,19.40
2023-04-18T04:01:59.401Z,18.20
2023-04-18T04:07:01.626Z,22.20
2023-04-18T04:12:03.835Z,19.30
2023-04-18T04:17:05.864Z,21.40
2023-04-18T04:22:08.670Z,16.40
2023-04-18T04:27:12.182Z,18.40
2023-04-18T04:32:14.756Z,17.20
2023-04-18T04:37:19.608Z,22.10
2023-04-18T04:42:24.785Z,19.70
2023-04-18T04:47:30.207Z,20.10
2023-04-18T04:52:33.086Z,22.60
2023-04-18T04:57:35.723Z,16.70
2023-04-18T05:02:37.851Z,16.60
2023-04-18T05:07:40.081Z,16.80
2023-04-18T05:12:41.990Z,17.60
2023-04-18T05:17:44.355Z,18.40
2023-04-18T05:22:46.488Z,19.50
2023-04-18T05:27:50.136Z,21.50
2023-04-18T05:32:52.267Z,18.10
2023-04-18T05:37:54.185Z,19.20
2023-04-18T05:42:56.205Z,17.90
2023-04-18T05:47:58.233Z,19.00
2023-04-18T05:53:01.023Z,20.80
2023-04-18T05:58:03.840Z,17.30
2023-04-18T06:03:12.896Z,18.00
2023-04-18T06:08:15.892Z,17.40
2023-04-18T06:13:17.940Z,17.10
2023-04-18T06:18:19.924Z,15.60
2023-04-18T06:23:22.054Z,16.90
2023-04-18T06:28:25.252Z,17.20
2023-04-18T06:33:28.272Z,17.30
2023-04-18T06:38:30.635Z,12.30
2023-04-18T06:43:35.367Z,14.40
2023-04-18T06:48:38.667Z,13.20
2023-04-18T06:53:40.726Z,11.70
2023-04-18T06:58:43.405Z,9.60
2023-04-18T07:03:50.391Z,9.60
2023-04-18T07:08:57.330Z,8.20
2023-04-18T07:14:01.933Z,9.40
2023-04-18T07:19:06.276Z,9.70
2023-04-18T07:24:08.414Z,9.50
2023-04-18T07:29:10.582Z,12.10
2023-04-18T07:34:13.993Z,11.30
2023-04-18T07:39:19.394Z,10.20
2023-04-18T07:44:21.524Z,10.90
2023-04-18T07:49:23.973Z,8.40
2023-04-18T07:54:25.979Z,10.50
2023-04-18T07:59:30.175Z,7.60
2023-04-18T08:04:32.580Z,10.40
2023-04-18T08:09:35.013Z,7.60
2023-04-18T08:14:37.428Z,10.10
2023-04-18T08:19:39.386Z,9.20
2023-04-18T08:24:46.412Z,9.00
2023-04-18T08:29:54.050Z,6.20
2023-04-18T08:34:56.047Z,7.10
2023-04-18T08:39:58.045Z,7.30
2023-04-18T08:45:00.359Z,6.80
2023-04-18T08:50:02.875Z,8.00
2023-04-18T08:55:06.286Z,8.00
2023-04-18T09:00:11.294Z,6.60
2023-04-18T09:05:15.917Z,7.30
2023-04-18T09:10:36.241Z,7.50
2023-04-18T09:15:38.334Z,6.90
2023-04-18T09:20:41.884Z,7.80
2023-04-18T09:25:48.805Z,6.60
2023-04-18T09:30:52.106Z,5.30
2023-04-18T09:35:55.215Z,6.80
2023-04-18T09:41:11.392Z,7.80
2023-04-18T09:46:14.688Z,7.00
2023-04-18T09:51:18.019Z,8.10
2023-04-18T09:56:26.481Z,7.20
2023-04-18T10:01:32.352Z,7.20
2023-04-18T10:06:39.140Z,7.40
2023-04-18T10:11:41.563Z,7.60
2023-04-18T10:16:49.930Z,6.60
2023-04-18T10:21:58.105Z,7.00
2023-04-18T10:27:00.306Z,7.10
2023-04-18T10:32:07.715Z,9.70
2023-04-18T10:37:13.026Z,9.30
2023-04-18T10:42:15.038Z,7.80
2023-04-18T10:47:17.109Z,7.30
2023-04-18T10:52:19.127Z,6.90
2023-04-18T10:57:21.354Z,8.60
2023-04-18T11:02:29.612Z,7.00
2023-04-18T11:07:35.819Z,6.90
2023-04-18T11:12:41.390Z,7.50
2023-04-18T11:17:44.539Z,5.60
2023-04-18T11:22:52.006Z,6.00
2023-04-18T11:27:55.555Z,6.70
2023-04-18T11:32:57.698Z,7.60
2023-04-18T11:38:00.642Z,7.00
2023-04-18T11:43:04.991Z,7.40
2023-04-18T11:48:07.157Z,6.90
2023-04-18T11:53:09.176Z,7.30
2023-04-18T11:58:11.092Z,8.30
2023-04-18T12:03:18.408Z,7.60
2023-04-18T12:08:21.026Z,8.00
2023-04-18T12:13:31.295Z,8.40
2023-04-18T12:18:33.822Z,8.80
2023-04-18T12:23:39.907Z,7.10
2023-04-18T12:28:45.870Z,7.40
2023-04-18T12:33:47.890Z,7.40
2023-04-18T12:38:50.975Z,8.90
2023-04-18T12:43:52.905Z,8.70
2023-04-18T12:48:56.792Z,9.90
2023-04-18T12:53:58.912Z,8.60
2023-04-18T12:59:00.883Z,7.50
2023-04-18T13:04:11.626Z,8.30
2023-04-18T13:09:33.942Z,9.30
2023-04-18T13:14:36.320Z,7.90
2023-04-18T13:19:40.156Z,8.90
2023-04-18T13:24:42.110Z,6.10
2023-04-18T13:29:45.312Z,7.50
2023-04-18T13:34:48.182Z,7.80
2023-04-18T13:39:50.425Z,7.30
2023-04-18T13:44:52.395Z,8.30
2023-04-18T13:49:54.332Z,8.90
2023-04-18T13:54:56.269Z,7.90
2023-04-18T13:59:58.354Z,9.40
2023-04-18T14:05:00.664Z,10.10
2023-04-18T14:10:03.033Z,11.70
2023-04-18T14:21:28.712Z,10.70
2023-04-18T14:26:31.165Z,12.10
2023-04-18T14:31:33.162Z,9.50
2023-04-18T14:36:35.558Z,9.60
2023-04-18T14:41:37.568Z,10.00
2023-04-18T14:46:39.551Z,9.30
2023-04-18T14:51:41.577Z,10.20
2023-04-18T14:56:43.519Z,10.20
2023-04-18T15:01:45.558Z,10.60
2023-04-18T15:06:47.606Z,8.60
2023-04-18T15:11:50.314Z,8.70
2023-04-18T15:16:52.378Z,8.80
2023-04-18T15:21:54.798Z,9.80
2023-04-18T15:26:58.001Z,9.30
2023-04-18T15:32:01.231Z,10.80
2023-04-18T15:37:04.338Z,10.70
2023-04-18T15:42:06.887Z,9.30
2023-04-18T15:47:08.821Z,9.60
2023-04-18T15:52:11.037Z,9.90
2023-04-18T15:57:13.069Z,9.10
2023-04-18T16:02:15.133Z,11.30
2023-04-18T16:07:17.335Z,11.20
2023-04-18T16:12:19.498Z,10.50
2023-04-18T16:17:21.519Z,12.70
2023-04-18T16:22:23.544Z,12.50
2023-04-18T16:27:25.950Z,11.40
2023-04-18T16:32:28.089Z,11.70
2023-04-18T16:37:30.081Z,18.60
2023-04-18T16:42:33.461Z,18.20
2023-04-18T16:47:36.128Z,14.10
2023-04-18T16:52:38.137Z,15.70
2023-04-18T16:57:40.380Z,15.70
2023-04-18T17:02:43.835Z,17.60
2023-04-18T17:07:47.424Z,19.60
2023-04-18T17:12:50.173Z,15.80
2023-04-18T17:17:52.225Z,16.50
2023-04-18T17:22:55.024Z,12.80
2023-04-18T17:27:57.576Z,10.10
2023-04-18T17:32:59.633Z,12.10
2023-04-18T17:38:01.770Z,10.40
2023-04-18T17:43:03.777Z,11.70
2023-04-18T17:48:06.109Z,13.20
2023-04-18T17:53:08.062Z,12.90
2023-04-18T17:58:10.048Z,10.30
2023-04-18T18:03:16.632Z,10.50
2023-04-18T18:08:18.674Z,13.30
2023-04-18T18:13:20.689Z,10.10
2023-04-18T18:18:23.019Z,13.40
2023-04-18T18:23:25.134Z,10.50
2023-04-18T18:28:28.424Z,12.20
2023-04-18T18:33:30.741Z,13.20
2023-04-18T18:38:32.751Z,11.10
2023-04-18T18:43:34.938Z,11.30
2023-04-18T18:48:38.716Z,10.40
2023-04-18T18:53:40.746Z,10.90
2023-04-18T18:58:43.499Z,14.00
2023-04-18T19:03:45.531Z,10.70
2023-04-18T19:08:47.559Z,10.80
2023-04-18T19:13:51.820Z,9.60
2023-04-18T19:18:53.911Z,9.10
2023-04-18T19:23:55.915Z,11.40
2023-04-18T19:28:57.934Z,11.90
2023-04-18T19:34:00.473Z,12.30
2023-04-18T19:39:02.580Z,11.40
2023-04-18T19:44:04.604Z,13.20
2023-04-18T19:49:06.601Z,12.10
2023-04-18T19:54:08.874Z,11.70
2023-04-18T19:59:10.789Z,10.80
2023-04-18T20:04:12.928Z,8.80
2023-04-18T20:09:16.395Z,12.00
2023-04-18T20:14:19.487Z,11.40
2023-04-18T20:19:25.376Z,10.20
2023-04-18T20:24:28.034Z,11.70
2023-04-18T20:29:30.192Z,10.70
2023-04-18T20:34:32.260Z,11.60
2023-04-18T20:39:36.897Z,9.20
2023-04-18T20:44:42.510Z,9.40
2023-04-18T20:49:46.733Z,9.30
2023-04-18T20:54:49.438Z,9.80
2023-04-18T20:59:54.260Z,8.00
2023-04-18T21:04:58.765Z,9.60
2023-04-18T21:10:00.747Z,9.00
2023-04-18T21:15:03.478Z,9.90
2023-04-18T21:20:06.471Z,11.00
2023-04-18T21:25:08.938Z,10.10
2023-04-18T21:30:11.206Z,10.70
2023-04-18T21:35:18.650Z,8.10
2023-04-18T21:40:22.143Z,9.20
2023-04-18T21:45:24.680Z,7.50
2023-04-18T21:50:26.620Z,9.20
2023-04-18T21:55:28.518Z,10.60
2023-04-18T22:00:33.755Z,9.30
2023-04-18T22:05:36.618Z,6.30
2023-04-18T22:10:39.199Z,7.60
2023-04-18T22:15:42.065Z,8.40
2023-04-18T22:20:46.381Z,12.50
2023-04-18T22:25:48.922Z,13.50
2023-04-18T22:30:50.999Z,7.80
2023-04-18T22:35:53.751Z,7.30
2023-04-18T22:40:59.540Z,7.70
2023-04-18T22:46:02.275Z,8.00
2023-04-18T22:51:04.576Z,12.00
2023-04-18T22:56:06.697Z,11.50
2023-04-18T23:01:08.672Z,9.70
2023-04-18T23:06:10.594Z,7.30
2023-04-18T23:11:13.158Z,5.40
2023-04-18T23:16:15.310Z,7.60
2023-04-18T23:21:17.672Z,8.80
2023-04-18T23:26:20.331Z,7.90
2023-04-18T23:31:22.393Z,8.60
2023-04-18T23:36:25.581Z,11.20
2023-04-18T23:41:27.531Z,8.70
2023-04-18T23:46:29.445Z,9.60
2023-04-18T23:51:31.863Z,9.70
2023-04-18T23:56:34.423Z,6.80
